Time;durP1;ratioP1;P1;durP2;ratioP2;P2;SDS_P1;SDS_P2;PMS_P1;PMS_P2;Temp;Humidity;BMP_temperature;BMP_pressure;BME280_temperature;BME280_humidity;BME280_pressure;Samples;Min_cycle;Max_cycle;Signal;HPM_P1;HPM_P2
2023/03/10 00:01:30;;;;;;;;;;;;;;;-144.98;100.00;62585.19;4937815;29;20340;-67
2023/03/10 00:04:33;;;;;;;;;;;;;;;-144.98;100.00;62585.19;4938009;29;19934;-67
2023/03/10 00:07:36;;;;;;;;;;;;;;;-144.98;100.00;62585.19;4915622;29;19926;-67
2023/03/10 00:10:40;;;;;;;;;;;;;;;-144.98;100.00;62585.19;4937867;29;19965;-67
2023/03/10 00:13:44;;;;;;;;;;;;;;;-144.98;100.00;62585.19;4937848;29;19943;-67
2023/03/10 00:16:47;;;;;;;;;;;;;;;-144.98;100.00;62585.19;4937717;29;19974;-67
2023/03/10 00:19:50;;;;;;;;;;;;;;;-144.98;100.00;62585.19;4937886;29;19971;-67
2023/03/10 00:22:53;;;;;;;;;;;;;;;-144.98;100.00;62585.19;4937655;29;20022;-67
2023/03/10 00:25:57;;;;;;;;;;;;;;;-144.98;100.00;62585.19;4925499;29;19925;-67
2023/03/10 00:29:00;;;;;;;;;;;;;;;-144.98;100.00;62585.19;4937514;29;19925;-67
2023/03/10 00:32:06;;;;;;;;;;;;;;;-144.98;100.00;62585.19;4937784;29;19926;-67
2023/03/10 00:35:12;;;;;;;;;;;;;;;-144.98;100.00;62585.19;4925573;29;20332;-67
2023/03/10 00:38:15;;;;;;;;;;;;;;;-144.98;100.00;62585.19;4925567;29;19926;-67
2023/03/10 00:41:20;;;;;;;;;;;;;;;-144.98;100.00;62585.19;4914501;29;20401;-67
2023/03/10 00:44:24;;;;;;;;;;;;;;;-144.98;100.00;62585.19;4930655;29;19934;-67
2023/03/10 00:47:27;;;;;;;;;;;;;;;-144.98;100.00;62585.19;4937229;29;20401;-67
2023/03/10 00:50:31;;;;;;;;;;;;;;;-144.98;100.00;62585.19;4936241;29;19926;-67
2023/03/10 00:53:35;;;;;;;;;;;;;;;-144.98;100.00;62585.19;4937335;29;19930;-67
2023/03/10 00:56:38;;;;;;;;;;;;;;;-144.98;100.00;62585.19;4937039;29;19929;-67
2023/03/10 00:59:42;;;;;;;;;;;;;;;-144.98;100.00;62585.19;4936959;29;19993;-67
2023/03/10 01:02:45;;;;;;;;;;;;;;;-144.98;100.00;62585.19;4935989;29;20495;-68
2023/03/10 01:05:49;;;;;;;;;;;;;;;-144.98;100.00;62585.19;4936772;29;19982;-68
2023/03/10 01:09:22;;;;;;;;;;;;;;;;;;;;;
2023/03/10 01:18:30;;;;;;;;;;;;;;;-144.98;100.00;62585.19;4936808;29;19926;-68
2023/03/10 01:25:34;;;;;;;;;;;;;;;-144.98;100.00;62585.19;4924958;29;20410;-67
2023/03/10 01:33:39;;;;;;;;;;;;;;;-144.98;100.00;62585.19;4929237;29;20379;-68
2023/03/10 01:37:36;;;;;;;;;;;;;;;-144.98;100.00;62585.19;4936633;29;19966;-68
2023/03/10 01:40:40;;;;;;;;;;;;;;;-144.98;100.00;62585.19;4910229;29;19929;-66
2023/03/10 01:43:48;;;;;;;;;;;;;;;-144.98;100.00;62585.19;4924178;29;19941;-66
2023/03/10 01:46:52;;;;;;;;;;;;;;;-144.98;100.00;62585.19;4935688;29;19926;-67
2023/03/10 01:49:59;;;;;;;;;;;;;;;-144.98;100.00;62585.19;4935053;29;19941;-66
2023/03/10 01:53:02;;;;;;;;;;;;;;;-144.98;100.00;62585.19;4924164;29;20451;-66
2023/03/10 01:56:05;;;;;;;;;;;;;;;-144.98;100.00;62585.19;4935812;29;19925;-66
2023/03/10 01:59:09;;;;;;;;;;;;;;;-144.98;100.00;62585.19;4924136;29;19925;-66
2023/03/10 02:02:13;;;;;;;;;;;;;;;-144.98;100.00;62585.19;4935814;29;20283;-66
2023/03/10 02:05:17;;;;;;;;;;;;;;;-144.98;100.00;62585.19;4923798;29;20295;-66
2023/03/10 02:08:21;;;;;;;;;;;;;;;-144.98;100.00;62585.19;4936031;29;19925;-66
2023/03/10 02:11:25;;;;;;;;;;;;;;;-144.98;100.00;62585.19;4923974;29;20041;-66
2023/03/10 02:14:30;;;;;;;;;;;;;;;-144.98;100.00;62585.19;4924165;29;20311;-66
2023/03/10 02:17:34;;;;;;;;;;;;;;;-144.98;100.00;62585.19;4934928;29;19983;-66
2023/03/10 02:20:48;;;;;;;;;;;;;;;-144.98;100.00;62585.19;4935570;29;20303;-66
2023/03/10 02:23:54;;;;;;;;;;;;;;;-144.98;100.00;62585.19;4935824;29;19925;-66
2023/03/10 02:27:23;;;;;;;;;;;;;;;-144.98;100.00;62585.19;4923730;29;19925;-66
2023/03/10 02:30:26;;;;;;;;;;;;;;;-144.98;100.00;62585.19;4923730;29;19926;-66
2023/03/10 02:33:30;;;;;;;;;;;;;;;-144.98;100.00;62585.19;4923676;29;19926;-66
2023/03/10 02:36:34;;;;;;;;;;;;;;;-144.98;100.00;62585.19;4923718;29;20410;-66
2023/03/10 02:39:37;;;;;;;;;;;;;;;-144.98;100.00;62585.19;4935324;29;19934;-67
2023/03/10 02:42:40;;;;;;;;;;;;;;;-144.98;100.00;62585.19;4923561;29;19926;-66
2023/03/10 02:45:45;;;;;;;;;;;;;;;-144.98;100.00;62585.19;4934742;29;19978;-66
2023/03/10 02:48:49;;;;;;;;;;;;;;;-144.98;100.00;62585.19;4923481;29;20044;-66
2023/03/10 02:52:06;;;;;;;;;;;;;;;-144.98;100.00;62585.19;4935323;29;20402;-66
2023/03/10 02:55:14;;;;;;;;;;;;;;;-144.98;100.00;62585.19;4923658;29;19926;-66
2023/03/10 02:58:17;;;;;;;;;;;;;;;-144.98;100.00;62585.19;4934600;29;20041;-66
2023/03/10 03:01:20;;;;;;;;;;;;;;;-144.98;100.00;62585.19;4935293;29;19929;-66
2023/03/10 03:04:24;;;;;;;;;;;;;;;-144.98;100.00;62585.19;4923599;29;19951;-66
2023/03/10 03:07:28;;;;;;;;;;;;;;;-144.98;100.00;62585.19;4923677;29;19925;-67
2023/03/10 03:10:32;;;;;;;;;;;;;;;-144.98;100.00;62585.19;4923419;29;19986;-67
2023/03/10 03:13:36;;;;;;;;;;;;;;;-144.98;100.00;62585.19;4924706;29;19925;-67
2023/03/10 03:16:39;;;;;;;;;;;;;;;-144.98;100.00;62585.19;4927118;29;19926;-67
2023/03/10 03:19:45;;;;;;;;;;;;;;;-144.98;100.00;62585.19;4937797;29;19977;-67
2023/03/10 03:22:49;;;;;;;;;;;;;;;-144.98;100.00;62585.19;4939011;29;19978;-67
2023/03/10 03:25:52;;;;;;;;;;;;;;;-144.98;100.00;62585.19;4938611;29;20386;-67
2023/03/10 03:28:57;;;;;;;;;;;;;;;-144.98;100.00;62585.19;4926520;29;20013;-67
2023/03/10 03:32:05;;;;;;;;;;;;;;;-144.98;100.00;62585.19;4926876;29;20339;-67
2023/03/10 03:35:12;;;;;;;;;;;;;;;-144.98;100.00;62585.19;4938867;29;20271;-67
2023/03/10 03:38:16;;;;;;;;;;;;;;;-144.98;100.00;62585.19;4938660;29;19926;-67
2023/03/10 03:41:19;;;;;;;;;;;;;;;-144.98;100.00;62585.19;4937542;29;20443;-67
2023/03/10 03:44:24;;;;;;;;;;;;;;;-144.98;100.00;62585.19;4937640;29;19926;-67
2023/03/10 03:47:28;;;;;;;;;;;;;;;-144.98;100.00;62585.19;4926391;29;20286;-67
2023/03/10 03:50:31;;;;;;;;;;;;;;;-144.98;100.00;62585.19;4926488;29;20390;-67
2023/03/10 03:53:40;;;;;;;;;;;;;;;-144.98;100.00;62585.19;4926366;29;19926;-67
2023/03/10 03:56:44;;;;;;;;;;;;;;;-144.98;100.00;62585.19;4938347;29;20153;-67
2023/03/10 03:59:50;;;;;;;;;;;;;;;-144.98;100.00;62585.19;4926201;29;19978;-67
2023/03/10 04:02:53;;;;;;;;;;;;;;;-144.98;100.00;62585.19;4926329;29;20005;-67
2023/03/10 04:05:56;;;;;;;;;;;;;;;-144.98;100.00;62585.19;4926075;29;19925;-67
2023/03/10 04:09:00;;;;;;;;;;;;;;;-144.98;100.00;62585.19;4938051;29;19930;-67
2023/03/10 04:12:06;;;;;;;;;;;;;;;-144.98;100.00;62585.19;4937065;29;20326;-67
2023/03/10 04:15:11;;;;;;;;;;;;;;;-144.98;100.00;62585.19;4936878;29;19969;-67
2023/03/10 04:18:14;;;;;;;;;;;;;;;-144.98;100.00;62585.19;4937858;29;20013;-67
2023/03/10 04:21:17;;;;;;;;;;;;;;;-144.98;100.00;62585.19;4925791;29;19930;-67
2023/03/10 04:24:23;;;;;;;;;;;;;;;-144.98;100.00;62585.19;4925564;29;19925;-67
2023/03/10 04:27:27;;;;;;;;;;;;;;;-144.98;100.00;62585.19;4925773;29;20054;-67
2023/03/10 04:30:30;;;;;;;;;;;;;;;-144.98;100.00;62585.19;4937562;29;19926;-67
2023/03/10 04:33:37;;;;;;;;;;;;;;;-144.98;100.00;62585.19;4936641;29;20348;-67
2023/03/10 04:36:40;;;;;;;;;;;;;;;-144.98;100.00;62585.19;4925591;29;19925;-67
2023/03/10 04:39:44;;;;;;;;;;;;;;;-144.98;100.00;62585.19;4936243;29;19965;-67
2023/03/10 04:42:49;;;;;;;;;;;;;;;-144.98;100.00;62585.19;4936747;29;19974;-67
2023/03/10 04:45:53;;;;;;;;;;;;;;;-144.98;100.00;62585.19;4937400;29;19926;-67
2023/03/10 04:48:57;;;;;;;;;;;;;;;-144.98;100.00;62585.19;4925203;29;20049;-67
2023/03/10 04:52:04;;;;;;;;;;;;;;;-144.98;100.00;62585.19;4925671;29;20304;-68
2023/03/10 04:55:07;;;;;;;;;;;;;;;-144.98;100.00;62585.19;4936290;29;19941;-68
2023/03/10 04:58:11;;;;;;;;;;;;;;;-144.98;100.00;62585.19;4936994;29;20072;-67
2023/03/10 05:01:14;;;;;;;;;;;;;;;-144.98;100.00;62585.19;4935908;29;19929;-67
2023/03/10 05:04:22;;;;;;;;;;;;;;;-144.98;100.00;62585.19;4925001;29;20299;-66
2023/03/10 05:07:26;;;;;;;;;;;;;;;-144.98;100.00;62585.19;4925724;29;19925;-72
2023/03/10 05:10:29;;;;;;;;;;;;;;;-144.98;100.00;62585.19;4936978;29;20358;-79
2023/03/10 05:13:32;;;;;;;;;;;;;;;-144.98;100.00;62585.19;4925030;29;20394;-71
2023/03/10 05:16:36;;;;;;;;;;;;;;;-144.98;100.00;62585.19;4924821;29;19966;-82
2023/03/10 05:19:41;;;;;;;;;;;;;;;-144.98;100.00;62585.19;4936348;29;19998;-79
2023/03/10 05:22:44;;;;;;;;;;;;;;;-144.98;100.00;62585.19;4925027;29;19930;-68
2023/03/10 05:25:48;;;;;;;;;;;;;;;-144.98;100.00;62585.19;4935743;29;19926;-68
2023/03/10 05:28:54;;;;;;;;;;;;;;;-144.98;100.00;62585.19;4935852;29;19926;-68
2023/03/10 05:32:20;;;;;;;;;;;;;;;-144.98;100.00;62585.19;4936320;29;20074;-67
2023/03/10 05:35:24;;;;;;;;;;;;;;;-144.98;100.00;62585.19;4924110;29;20454;-69
2023/03/10 05:38:28;;;;;;;;;;;;;;;-144.98;100.00;62585.19;4924716;29;19925;-67
2023/03/10 05:41:32;;;;;;;;;;;;;;;-144.98;100.00;62585.19;4935985;29;20291;-69
2023/03/10 05:44:35;;;;;;;;;;;;;;;-144.98;100.00;62585.19;4932039;29;19966;-69
2023/03/10 05:47:45;;;;;;;;;;;;;;;-144.98;100.00;62585.19;4924356;29;19970;-69
2023/03/10 05:50:58;;;;;;;;;;;;;;;-144.98;100.00;62585.19;4935175;29;20287;-69
2023/03/10 05:54:05;;;;;;;;;;;;;;;-144.98;100.00;62585.19;4936141;29;19965;-69
2023/03/10 05:57:08;;;;;;;;;;;;;;;-144.98;100.00;62585.19;4927543;29;20029;-69
2023/03/10 06:00:14;;;;;;;;;;;;;;;-144.98;100.00;62585.19;4934947;29;20049;-69
2023/03/10 06:03:28;;;;;;;;;;;;;;;-144.98;100.00;62585.19;4928727;29;19926;-69
2023/03/10 06:06:38;;;;;;;;;;;;;;;-144.98;100.00;62585.19;4935596;29;19926;-69
2023/03/10 06:09:41;;;;;;;;;;;;;;;-144.98;100.00;62585.19;4935573;29;20387;-69
2023/03/10 06:12:45;;;;;;;;;;;;;;;-144.98;100.00;62585.19;4935749;29;19930;-69
2023/03/10 06:15:53;;;;;;;;;;;;;;;-144.98;100.00;62585.19;4935769;29;19926;-69
2023/03/10 06:18:56;;;;;;;;;;;;;;;-144.98;100.00;62585.19;4935725;29;19926;-69
2023/03/10 06:22:02;;;;;;;;;;;;;;;-144.98;100.00;62585.19;4935733;29;19934;-69
2023/03/10 06:25:05;;;;;;;;;;;;;;;-144.98;100.00;62585.19;4936011;29;19926;-69
2023/03/10 06:28:10;;;;;;;;;;;;;;;-144.98;100.00;62585.19;4935514;29;19965;-69
2023/03/10 06:31:21;;;;;;;;;;;;;;;-144.98;100.00;62585.19;4935757;29;19926;-69
2023/03/10 06:34:26;;;;;;;;;;;;;;;-144.98;100.00;62585.19;4935508;29;19925;-69
2023/03/10 06:37:34;;;;;;;;;;;;;;;-144.98;100.00;62585.19;4935668;29;19925;-69
2023/03/10 06:40:37;;;;;;;;;;;;;;;-144.98;100.00;62585.19;4935575;29;19981;-69
2023/03/10 06:43:41;;;;;;;;;;;;;;;-144.98;100.00;62585.19;4935479;29;19973;-66
2023/03/10 06:46:45;;;;;;;;;;;;;;;-144.98;100.00;62585.19;4935538;29;20045;-67
2023/03/10 06:49:57;;;;;;;;;;;;;;;-144.98;100.00;62585.19;4939337;29;20013;-66
2023/03/10 06:53:03;;;;;;;;;;;;;;;-144.98;100.00;62585.19;4938653;29;20022;-68
2023/03/10 06:56:10;;;;;;;;;;;;;;;-144.98;100.00;62585.19;4939218;29;19926;-67
2023/03/10 06:59:14;;;;;;;;;;;;;;;-144.98;100.00;62585.19;4939129;29;20344;-67
2023/03/10 07:02:18;;;;;;;;;;;;;;;-144.98;100.00;62585.19;4939001;29;20356;-68
2023/03/10 07:05:23;;;;;;;;;;;;;;;-144.98;100.00;62585.19;4939213;29;19993;-69
2023/03/10 07:08:27;;;;;;;;;;;;;;;-144.98;100.00;62585.19;4938966;29;19941;-68
2023/03/10 07:11:32;;;;;;;;;;;;;;;-144.98;100.00;62585.19;4934776;29;19925;-77
2023/03/10 07:14:35;;;;;;;;;;;;;;;-144.98;100.00;62585.19;4938863;29;19974;-68
2023/03/10 07:17:39;;;;;;;;;;;;;;;-144.98;100.00;62585.19;4938639;29;19925;-68
2023/03/10 07:20:46;;;;;;;;;;;;;;;-144.98;100.00;62585.19;4938849;29;19978;-68
2023/03/10 07:23:50;;;;;;;;;;;;;;;-144.98;100.00;62585.19;4938667;29;19926;-68
2023/03/10 07:26:52;;;;;;;;;;;;;;;-144.98;100.00;62585.19;4926651;29;20438;-68
2023/03/10 07:29:55;;;;;;;;;;;;;;;-144.98;100.00;62585.19;4938507;29;20017;-68
2023/03/10 07:32:58;;;;;;;;;;;;;;;-144.98;100.00;62585.19;4938424;29;19947;-68
2023/03/10 07:36:09;;;;;;;;;;;;;;;-144.98;100.00;62585.19;4938361;29;19942;-69
2023/03/10 07:39:13;;;;;;;;;;;;;;;-144.98;100.00;62585.19;4938415;29;19978;-69
2023/03/10 07:42:18;;;;;;;;;;;;;;;-144.98;100.00;62585.19;4938490;29;19929;-69
2023/03/10 07:45:22;;;;;;;;;;;;;;;-144.98;100.00;62585.19;4938246;29;19926;-68
2023/03/10 07:48:25;;;;;;;;;;;;;;;-144.98;100.00;62585.19;4938027;29;19982;-74
2023/03/10 07:51:29;;;;;;;;;;;;;;;-144.98;100.00;62585.19;4935427;29;19926;-69
2023/03/10 07:54:32;;;;;;;;;;;;;;;-144.98;100.00;62585.19;4919125;29;19925;-71
2023/03/10 07:57:35;;;;;;;;;;;;;;;-144.98;100.00;62585.19;4919211;29;19965;-73
2023/03/10 08:00:37;;;;;;;;;;;;;;;-144.98;100.00;62585.19;4914784;29;19930;-69
2023/03/10 08:03:41;;;;;;;;;;;;;;;-144.98;100.00;62585.19;4919134;29;19926;-69
2023/03/10 08:06:45;;;;;;;;;;;;;;;-144.98;100.00;62585.19;4918825;29;20361;-68
2023/03/10 08:09:49;;;;;;;;;;;;;;;-144.98;100.00;62585.19;4918963;29;19926;-68
2023/03/10 08:12:52;;;;;;;;;;;;;;;-144.98;100.00;62585.19;4918919;29;20257;-68
2023/03/10 08:15:57;;;;;;;;;;;;;;;-144.98;100.00;62585.19;4918866;29;19925;-68
2023/03/10 08:19:00;;;;;;;;;;;;;;;-144.98;100.00;62585.19;4918806;29;19974;-68
2023/03/10 08:22:04;;;;;;;;;;;;;;;-144.98;100.00;62585.19;4918620;29;20248;-68
2023/03/10 08:25:07;;;;;;;;;;;;;;;-144.98;100.00;62585.19;4918308;29;20021;-68
2023/03/10 08:28:10;;;;;;;;;;;;;;;-144.98;100.00;62585.19;4918158;29;19927;-69
2023/03/10 08:31:15;;;;;;;;;;;;;;;-144.98;100.00;62585.19;4918623;29;20079;-69
2023/03/10 08:34:18;;;;;;;;;;;;;;;-144.98;100.00;62585.19;4918908;29;19927;-68
2023/03/10 08:37:21;;;;;;;;;;;;;;;-144.98;100.00;62585.19;4918581;29;19926;-68
2023/03/10 08:40:24;;;;;;;;;;;;;;;-144.98;100.00;62585.19;4918451;29;20375;-68
2023/03/10 08:43:28;;;;;;;;;;;;;;;-144.98;100.00;62585.19;4918480;29;19925;-68
2023/03/10 08:46:32;;;;;;;;;;;;;;;-144.98;100.00;62585.19;4918268;29;20006;-69
2023/03/10 08:49:35;;;;;;;;;;;;;;;-144.98;100.00;62585.19;4918349;29;19930;-69
2023/03/10 08:52:39;;;;;;;;;;;;;;;-144.98;100.00;62585.19;4916757;29;19926;-68
2023/03/10 08:55:45;;;;;;;;;;;;;;;-144.98;100.00;62585.19;4918566;29;20011;-68
2023/03/10 08:58:57;;;;;;;;;;;;;;;-144.98;100.00;62585.19;4918481;29;19975;-69
2023/03/10 09:02:01;;;;;;;;;;;;;;;-144.98;100.00;62585.19;4906752;29;20348;-69
2023/03/10 09:05:07;;;;;;;;;;;;;;;-144.98;100.00;62585.19;4918578;29;19966;-69
2023/03/10 09:08:10;;;;;;;;;;;;;;;-144.98;100.00;62585.19;4917837;29;19926;-68
2023/03/10 09:11:15;;;;;;;;;;;;;;;-144.98;100.00;62585.19;4904944;29;20357;-69
2023/03/10 09:14:19;;;;;;;;;;;;;;;-144.98;100.00;62585.19;4917826;29;20295;-67
2023/03/10 09:17:22;;;;;;;;;;;;;;;-144.98;100.00;62585.19;4918069;29;20348;-69
2023/03/10 09:20:25;;;;;;;;;;;;;;;-144.98;100.00;62585.19;4917537;29;19930;-67
2023/03/10 09:23:28;;;;;;;;;;;;;;;-144.98;100.00;62585.19;4905889;29;20431;-67
2023/03/10 09:26:33;;;;;;;;;;;;;;;-144.98;100.00;62585.19;4912332;29;20383;-67
2023/03/10 09:29:36;;;;;;;;;;;;;;;-144.98;100.00;62585.19;4905685;29;19926;-67
2023/03/10 09:32:39;;;;;;;;;;;;;;;-144.98;100.00;62585.19;4917504;29;19926;-67
2023/03/10 09:35:42;;;;;;;;;;;;;;;-144.98;100.00;62585.19;4905699;29;20136;-67
2023/03/10 09:38:46;;;;;;;;;;;;;;;-144.98;100.00;62585.19;4905779;29;20456;-67
2023/03/10 09:42:08;;;;;;;;;;;;;;;-144.98;100.00;62585.19;4917481;29;20335;-67
2023/03/10 09:45:20;;;;;;;;;;;;;;;-144.98;100.00;62585.19;4917479;29;19926;-67
2023/03/10 09:48:24;;;;;;;;;;;;;;;-144.98;100.00;62585.19;4917290;29;20030;-67
2023/03/10 09:51:27;;;;;;;;;;;;;;;-144.98;100.00;62585.19;4904460;29;20403;-67
2023/03/10 09:54:32;;;;;;;;;;;;;;;-144.98;100.00;62585.19;4917101;29;19925;-67
2023/03/10 09:57:35;;;;;;;;;;;;;;;-144.98;100.00;62585.19;4917153;29;19990;-67
2023/03/10 10:00:40;;;;;;;;;;;;;;;-144.98;100.00;62585.19;4905397;29;19930;-67
2023/03/10 10:03:46;;;;;;;;;;;;;;;-144.98;100.00;62585.19;4917090;29;19926;-67
2023/03/10 10:06:50;;;;;;;;;;;;;;;-144.98;100.00;62585.19;4917018;29;19926;-67
2023/03/10 10:10:23;;;;;;;;;;;;;;;-144.98;100.00;62585.19;4916642;29;20399;-68
2023/03/10 10:13:28;;;;;;;;;;;;;;;-144.98;100.00;62585.19;4916846;29;19926;-67
2023/03/10 10:16:36;;;;;;;;;;;;;;;-144.98;100.00;62585.19;4916961;29;20295;-68
2023/03/10 10:19:39;;;;;;;;;;;;;;;-144.98;100.00;62585.19;4915807;29;20291;-67
2023/03/10 10:22:44;;;;;;;;;;;;;;;-144.98;100.00;62585.19;4916459;29;19926;-68
2023/03/10 10:25:47;;;;;;;;;;;;;;;-144.98;100.00;62585.19;4916792;29;19990;-68
2023/03/10 10:28:54;;;;;;;;;;;;;;;-144.98;100.00;62585.19;4926922;29;19926;-68
2023/03/10 10:32:02;;;;;;;;;;;;;;;-144.98;100.00;62585.19;4916796;29;19926;-67
2023/03/10 10:35:14;;;;;;;;;;;;;;;-144.98;100.00;62585.19;4893985;29;19970;-68
2023/03/10 10:38:26;;;;;;;;;;;;;;;-144.98;100.00;62585.19;4916621;29;19926;-67
2023/03/10 10:41:32;;;;;;;;;;;;;;;-144.98;100.00;62585.19;4911882;29;19938;-67
2023/03/10 10:44:40;;;;;;;;;;;;;;;-144.98;100.00;62585.19;4916672;29;19926;-67
2023/03/10 10:47:48;;;;;;;;;;;;;;;-144.98;100.00;62585.19;4908653;29;19967;-69
2023/03/10 10:50:52;;;;;;;;;;;;;;;-144.98;100.00;62585.19;4916517;29;19975;-69
2023/03/10 10:54:01;;;;;;;;;;;;;;;-144.98;100.00;62585.19;4916493;29;19998;-72
2023/03/10 10:57:14;;;;;;;;;;;;;;;-144.98;100.00;62585.19;4916467;29;19926;-67
2023/03/10 11:00:28;;;;;;;;;;;;;;;-144.98;100.00;62585.19;4916156;29;19929;-68
2023/03/10 11:03:32;;;;;;;;;;;;;;;-144.98;100.00;62585.19;4915921;29;19926;-67
2023/03/10 11:06:36;;;;;;;;;;;;;;;-144.98;100.00;62585.19;4904814;29;19925;-67
2023/03/10 11:09:39;;;;;;;;;;;;;;;-144.98;100.00;62585.19;4916303;29;19926;-67
2023/03/10 11:12:51;;;;;;;;;;;;;;;-144.98;100.00;62585.19;4913088;29;19927;-67
2023/03/10 11:16:01;;;;;;;;;;;;;;;-144.98;100.00;62585.19;4916215;29;20126;-67
2023/03/10 11:19:13;;;;;;;;;;;;;;;-144.98;100.00;62585.19;4916193;29;19930;-67
2023/03/10 11:22:25;;;;;;;;;;;;;;;-144.98;100.00;62585.19;4916034;29;20068;-67
2023/03/10 11:25:41;;;;;;;;;;;;;;;-144.98;100.00;62585.19;4915905;29;19926;-67
2023/03/10 11:28:47;;;;;;;;;;;;;;;-144.98;100.00;62585.19;4913137;29;19930;-67
2023/03/10 11:32:06;;;;;;;;;;;;;;;-144.98;100.00;62585.19;4915981;29;19927;-67
2023/03/10 11:35:27;;;;;;;;;;;;;;;-144.98;100.00;62585.19;4917423;29;19933;-66
2023/03/10 11:38:35;;;;;;;;;;;;;;;-144.98;100.00;62585.19;4919372;29;20484;-67
2023/03/10 11:41:42;;;;;;;;;;;;;;;-144.98;100.00;62585.19;4919336;29;20304;-68
2023/03/10 11:45:01;;;;;;;;;;;;;;;-144.98;100.00;62585.19;4919309;29;19926;-69
2023/03/10 11:48:17;;;;;;;;;;;;;;;-144.98;100.00;62585.19;4919080;29;19934;-67
2023/03/10 11:51:20;;;;;;;;;;;;;;;-144.98;100.00;62585.19;4917926;29;19925;-67
2023/03/10 11:54:32;;;;;;;;;;;;;;;-144.98;100.00;62585.19;4918302;29;19926;-68
2023/03/10 11:57:38;;;;;;;;;;;;;;;-144.98;100.00;62585.19;4907032;29;19930;-67
2023/03/10 12:00:42;;;;;;;;;;;;;;;-144.98;100.00;62585.19;4918730;29;20406;-66
2023/03/10 12:03:58;;;;;;;;;;;;;;;-144.98;100.00;62585.19;4919091;29;19925;-66
2023/03/10 12:07:19;;;;;;;;;;;;;;;-144.98;100.00;62585.19;4919183;29;19930;-67
2023/03/10 12:10:22;;;;;;;;;;;;;;;-144.98;100.00;62585.19;4918986;29;20382;-66
2023/03/10 12:13:29;;;;;;;;;;;;;;;-144.98;100.00;62585.19;4918982;29;19926;-67
2023/03/10 12:16:35;;;;;;;;;;;;;;;-144.98;100.00;62585.19;4919137;29;20356;-66
2023/03/10 12:19:57;;;;;;;;;;;;;;;-144.98;100.00;62585.19;4918756;29;20403;-68
2023/03/10 12:23:11;;;;;;;;;;;;;;;-144.98;100.00;62585.19;4918670;29;20001;-66
2023/03/10 12:26:35;;;;;;;;;;;;;;;-144.98;100.00;62585.19;4918410;29;20406;-66
2023/03/10 12:29:42;;;;;;;;;;;;;;;-144.98;100.00;62585.19;4918039;29;19927;-67
2023/03/10 12:32:46;;;;;;;;;;;;;;;-144.98;100.00;62585.19;4906522;29;19974;-66
2023/03/10 12:35:49;;;;;;;;;;;;;;;-144.98;100.00;62585.19;4918412;29;20024;-66
2023/03/10 12:38:53;;;;;;;;;;;;;;;-144.98;100.00;62585.19;4917946;29;20335;-67
2023/03/10 12:41:59;;;;;;;;;;;;;;;-144.98;100.00;62585.19;4918408;29;19985;-66
2023/03/10 12:45:07;;;;;;;;;;;;;;;-144.98;100.00;62585.19;4918089;29;20006;-68
2023/03/10 12:48:16;;;;;;;;;;;;;;;-144.98;100.00;62585.19;4906310;29;19931;-67
2023/03/10 12:51:24;;;;;;;;;;;;;;;-144.98;100.00;62585.19;4916250;29;19926;-67
2023/03/10 12:54:36;;;;;;;;;;;;;;;-144.98;100.00;62585.19;4917538;29;19982;-67
2023/03/10 12:57:46;;;;;;;;;;;;;;;-144.98;100.00;62585.19;4918183;29;19926;-67
2023/03/10 13:00:52;;;;;;;;;;;;;;;-144.98;100.00;62585.19;4917772;29;19931;-67
2023/03/10 13:03:56;;;;;;;;;;;;;;;-144.98;100.00;62585.19;4917972;29;20447;-68
2023/03/10 13:07:02;;;;;;;;;;;;;;;-144.98;100.00;62585.19;4917900;29;19926;-68
2023/03/10 13:10:05;;;;;;;;;;;;;;;-144.98;100.00;62585.19;4917682;29;20017;-71
2023/03/10 13:13:14;;;;;;;;;;;;;;;-144.98;100.00;62585.19;4910169;29;19983;-68
2023/03/10 13:16:20;;;;;;;;;;;;;;;-144.98;100.00;62585.19;4911373;29;20451;-69
2023/03/10 13:19:27;;;;;;;;;;;;;;;-144.98;100.00;62585.19;4918034;29;19957;-67
2023/03/10 13:22:44;;;;;;;;;;;;;;;-144.98;100.00;62585.19;4906033;29;20041;-67
2023/03/10 13:25:56;;;;;;;;;;;;;;;-144.98;100.00;62585.19;4899206;29;20341;-68
2023/03/10 13:29:00;;;;;;;;;;;;;;;-144.98;100.00;62585.19;4917668;29;19926;-68
2023/03/10 13:32:05;;;;;;;;;;;;;;;-144.98;100.00;62585.19;4921603;29;20082;-68
2023/03/10 13:35:27;;;;;;;;;;;;;;;-144.98;100.00;62585.19;4922770;29;19974;-70
2023/03/10 13:38:32;;;;;;;;;;;;;;;-144.98;100.00;62585.19;4936105;29;19925;-68
2023/03/10 13:41:38;;;;;;;;;;;;;;;-144.98;100.00;62585.19;4934906;29;20045;-68
2023/03/10 13:44:46;;;;;;;;;;;;;;;-144.98;100.00;62585.19;4936435;29;19929;-69
2023/03/10 13:47:50;;;;;;;;;;;;;;;-144.98;100.00;62585.19;4935518;29;19929;-69
2023/03/10 13:51:04;;;;;;;;;;;;;;;-144.98;100.00;62585.19;4936204;29;19986;-70
2023/03/10 13:54:14;;;;;;;;;;;;;;;-144.98;100.00;62585.19;4936100;29;19926;-66
2023/03/10 13:57:24;;;;;;;;;;;;;;;-144.98;100.00;62585.19;4935047;29;19925;-68
2023/03/10 14:00:27;;;;;;;;;;;;;;;-144.98;100.00;62585.19;4923186;29;20303;-68
2023/03/10 14:03:41;;;;;;;;;;;;;;;-144.98;100.00;62585.19;4936053;29;19925;-67
2023/03/10 14:07:08;;;;;;;;;;;;;;;-144.98;100.00;62585.19;4936468;29;19926;-67
2023/03/10 14:10:13;;;;;;;;;;;;;;;-144.98;100.00;62585.19;4935946;29;19925;-68
2023/03/10 14:13:35;;;;;;;;;;;;;;;-144.98;100.00;62585.19;4935908;29;20029;-67
2023/03/10 14:16:44;;;;;;;;;;;;;;;-144.98;100.00;62585.19;4924025;29;20394;-67
2023/03/10 14:24:06;;;;;;;;;;;;;;;-144.98;100.00;62585.19;4935733;29;19934;-68
2023/03/10 14:27:10;;;;;;;;;;;;;;;-144.98;100.00;62585.19;4935754;29;19925;-68
2023/03/10 14:30:16;;;;;;;;;;;;;;;-144.98;100.00;62585.19;4935637;29;20462;-67
2023/03/10 14:33:19;;;;;;;;;;;;;;;-144.98;100.00;62585.19;4935486;29;19927;-68
2023/03/10 14:36:25;;;;;;;;;;;;;;;-144.98;100.00;62585.19;4923977;29;19988;-67
2023/03/10 14:39:31;;;;;;;;;;;;;;;-144.98;100.00;62585.19;4930592;29;19925;-67
2023/03/10 14:42:35;;;;;;;;;;;;;;;-144.98;100.00;62585.19;4935602;29;19957;-67
2023/03/10 14:45:38;;;;;;;;;;;;;;;-144.98;100.00;62585.19;4935601;29;20025;-67
2023/03/10 14:48:42;;;;;;;;;;;;;;;-144.98;100.00;62585.19;4935499;29;19930;-69
2023/03/10 14:51:52;;;;;;;;;;;;;;;-144.98;100.00;62585.19;4934831;29;19925;-68
2023/03/10 14:54:56;;;;;;;;;;;;;;;-144.98;100.00;62585.19;4935813;29;20534;-68
2023/03/10 14:58:01;;;;;;;;;;;;;;;-144.98;100.00;62585.19;4924183;29;19977;-68
2023/03/10 15:01:08;;;;;;;;;;;;;;;-144.98;100.00;62585.19;4935111;29;19930;-69
2023/03/10 15:04:13;;;;;;;;;;;;;;;-144.98;100.00;62585.19;4935840;29;19925;-66
2023/03/10 15:07:16;;;;;;;;;;;;;;;-144.98;100.00;62585.19;4935212;29;20459;-68
2023/03/10 15:10:21;;;;;;;;;;;;;;;-144.98;100.00;62585.19;4939062;29;19926;-67
2023/03/10 15:13:24;;;;;;;;;;;;;;;-144.98;100.00;62585.19;4939046;29;19925;-67
2023/03/10 15:16:27;;;;;;;;;;;;;;;-144.98;100.00;62585.19;4938829;29;19926;-67
2023/03/10 15:19:30;;;;;;;;;;;;;;;-144.98;100.00;62585.19;4938883;29;19979;-67
2023/03/10 15:22:33;;;;;;;;;;;;;;;-144.98;100.00;62585.19;4938763;29;19930;-67
2023/03/10 15:25:36;;;;;;;;;;;;;;;-144.98;100.00;62585.19;4938734;29;20335;-68
2023/03/10 15:28:40;;;;;;;;;;;;;;;-144.98;100.00;62585.19;4938193;29;19925;-68
2023/03/10 15:31:44;;;;;;;;;;;;;;;-144.98;100.00;62585.19;4938892;29;19969;-68
2023/03/10 15:34:48;;;;;;;;;;;;;;;-144.98;100.00;62585.19;4938614;29;19926;-67
2023/03/10 15:37:51;;;;;;;;;;;;;;;-144.98;100.00;62585.19;4938819;29;19925;-68
2023/03/10 15:40:56;;;;;;;;;;;;;;;-144.98;100.00;62585.19;4938686;29;19945;-68
2023/03/10 15:43:59;;;;;;;;;;;;;;;-144.98;100.00;62585.19;4938772;29;19926;-67
2023/03/10 15:47:02;;;;;;;;;;;;;;;-144.98;100.00;62585.19;4938535;29;19977;-67
2023/03/10 15:50:07;;;;;;;;;;;;;;;-144.98;100.00;62585.19;4938464;29;19929;-68
2023/03/10 15:53:12;;;;;;;;;;;;;;;-144.98;100.00;62585.19;4939014;29;19974;-68